sensor_id;sensor_type;location;lat;lon;timestamp;temperature;humidity
37456;DHT22;23316;50.718;7.328;2022-12-11T00:00:08;4.20;55.30
37456;DHT22;23316;50.718;7.328;2022-12-11T00:02:36;4.20;55.30
37456;DHT22;23316;50.718;7.328;2022-12-11T00:05:04;4.30;55.30
37456;DHT22;23316;50.718;7.328;2022-12-11T00:07:31;4.20;55.20
37456;DHT22;23316;50.718;7.328;2022-12-11T00:10:00;4.20;55.20
37456;DHT22;23316;50.718;7.328;2022-12-11T00:12:28;4.20;55.30
37456;DHT22;23316;50.718;7.328;2022-12-11T00:14:56;4.30;55.40
37456;DHT22;23316;50.718;7.328;2022-12-11T00:17:23;4.30;55.40
37456;DHT22;23316;50.718;7.328;2022-12-11T00:19:50;4.30;55.40
37456;DHT22;23316;50.718;7.328;2022-12-11T00:22:17;4.30;55.50
37456;DHT22;23316;50.718;7.328;2022-12-11T00:24:45;4.30;55.40
37456;DHT22;23316;50.718;7.328;2022-12-11T00:27:13;4.30;55.40
37456;DHT22;23316;50.718;7.328;2022-12-11T00:29:40;4.30;55.40
37456;DHT22;23316;50.718;7.328;2022-12-11T00:32:08;4.30;55.40
37456;DHT22;23316;50.718;7.328;2022-12-11T00:34:35;4.30;55.40
37456;DHT22;23316;50.718;7.328;2022-12-11T00:37:03;4.30;55.40
37456;DHT22;23316;50.718;7.328;2022-12-11T00:39:30;4.30;55.40
37456;DHT22;23316;50.718;7.328;2022-12-11T00:41:57;4.40;55.40
37456;DHT22;23316;50.718;7.328;2022-12-11T00:44:26;4.40;55.40
37456;DHT22;23316;50.718;7.328;2022-12-11T00:46:53;4.40;55.40
37456;DHT22;23316;50.718;7.328;2022-12-11T00:49:20;4.40;55.30
37456;DHT22;23316;50.718;7.328;2022-12-11T00:51:47;4.40;55.30
37456;DHT22;23316;50.718;7.328;2022-12-11T00:54:14;4.40;55.30
37456;DHT22;23316;50.718;7.328;2022-12-11T00:56:42;4.40;55.30
37456;DHT22;23316;50.718;7.328;2022-12-11T00:59:09;4.40;55.30
37456;DHT22;23316;50.718;7.328;2022-12-11T01:01:38;4.40;55.30
37456;DHT22;23316;50.718;7.328;2022-12-11T01:04:05;4.40;55.40
37456;DHT22;23316;50.718;7.328;2022-12-11T01:06:32;4.40;55.40
37456;DHT22;23316;50.718;7.328;2022-12-11T01:09:00;4.40;55.40
37456;DHT22;23316;50.718;7.328;2022-12-11T01:11:44;4.40;55.40
37456;DHT22;23316;50.718;7.328;2022-12-11T01:14:12;4.40;55.30
37456;DHT22;23316;50.718;7.328;2022-12-11T01:16:40;4.30;55.30
37456;DHT22;23316;50.718;7.328;2022-12-11T01:19:08;4.30;55.30
37456;DHT22;23316;50.718;7.328;2022-12-11T01:21:35;4.30;55.40
37456;DHT22;23316;50.718;7.328;2022-12-11T01:24:02;4.30;55.40
37456;DHT22;23316;50.718;7.328;2022-12-11T01:26:30;4.30;55.50
37456;DHT22;23316;50.718;7.328;2022-12-11T01:28:57;4.30;55.50
37456;DHT22;23316;50.718;7.328;2022-12-11T01:31:25;4.20;55.60
37456;DHT22;23316;50.718;7.328;2022-12-11T01:33:54;4.20;55.70
37456;DHT22;23316;50.718;7.328;2022-12-11T01:36:22;4.20;55.70
37456;DHT22;23316;50.718;7.328;2022-12-11T01:38:50;4.20;55.80
37456;DHT22;23316;50.718;7.328;2022-12-11T01:41:19;4.20;55.80
37456;DHT22;23316;50.718;7.328;2022-12-11T01:43:57;4.20;55.90
37456;DHT22;23316;50.718;7.328;2022-12-11T01:46:26;4.20;55.90
37456;DHT22;23316;50.718;7.328;2022-12-11T01:48:57;4.20;55.90
37456;DHT22;23316;50.718;7.328;2022-12-11T01:51:25;4.20;56.00
37456;DHT22;23316;50.718;7.328;2022-12-11T01:53:56;4.20;56.00
37456;DHT22;23316;50.718;7.328;2022-12-11T01:56:25;4.20;56.00
37456;DHT22;23316;50.718;7.328;2022-12-11T01:58:56;4.20;56.00
37456;DHT22;23316;50.718;7.328;2022-12-11T02:01:29;4.20;56.10
37456;DHT22;23316;50.718;7.328;2022-12-11T02:04:00;4.20;56.00
37456;DHT22;23316;50.718;7.328;2022-12-11T02:06:33;4.20;56.00
37456;DHT22;23316;50.718;7.328;2022-12-11T02:09:01;4.20;56.10
37456;DHT22;23316;50.718;7.328;2022-12-11T02:11:37;4.20;56.10
37456;DHT22;23316;50.718;7.328;2022-12-11T02:14:12;4.20;56.10
37456;DHT22;23316;50.718;7.328;2022-12-11T02:16:47;4.30;56.20
37456;DHT22;23316;50.718;7.328;2022-12-11T02:19:30;4.30;56.20
37456;DHT22;23316;50.718;7.328;2022-12-11T02:22:06;4.30;56.10
37456;DHT22;23316;50.718;7.328;2022-12-11T02:24:51;4.30;56.10
37456;DHT22;23316;50.718;7.328;2022-12-11T02:27:30;4.30;56.20
37456;DHT22;23316;50.718;7.328;2022-12-11T02:30:03;4.30;56.20
37456;DHT22;23316;50.718;7.328;2022-12-11T02:32:36;4.30;56.20
37456;DHT22;23316;50.718;7.328;2022-12-11T02:35:09;4.30;56.20
37456;DHT22;23316;50.718;7.328;2022-12-11T02:37:39;4.30;56.20
37456;DHT22;23316;50.718;7.328;2022-12-11T02:40:10;4.30;56.20
37456;DHT22;23316;50.718;7.328;2022-12-11T02:42:41;4.30;56.20
37456;DHT22;23316;50.718;7.328;2022-12-11T02:45:11;4.30;56.20
37456;DHT22;23316;50.718;7.328;2022-12-11T02:47:40;4.30;56.20
37456;DHT22;23316;50.718;7.328;2022-12-11T02:50:13;4.30;56.30
37456;DHT22;23316;50.718;7.328;2022-12-11T02:52:42;4.30;56.40
37456;DHT22;23316;50.718;7.328;2022-12-11T02:55:11;4.30;56.50
37456;DHT22;23316;50.718;7.328;2022-12-11T02:57:44;4.30;56.50
37456;DHT22;23316;50.718;7.328;2022-12-11T03:00:14;4.30;56.50
37456;DHT22;23316;50.718;7.328;2022-12-11T03:02:44;4.30;56.50
37456;DHT22;23316;50.718;7.328;2022-12-11T03:05:13;4.40;56.60
37456;DHT22;23316;50.718;7.328;2022-12-11T03:07:42;4.30;56.50
37456;DHT22;23316;50.718;7.328;2022-12-11T03:10:13;4.40;56.60
37456;DHT22;23316;50.718;7.328;2022-12-11T03:12:43;4.40;56.60
37456;DHT22;23316;50.718;7.328;2022-12-11T03:15:15;4.40;56.50
37456;DHT22;23316;50.718;7.328;2022-12-11T03:17:52;4.40;56.50
37456;DHT22;23316;50.718;7.328;2022-12-11T03:20:27;4.40;56.50
37456;DHT22;23316;50.718;7.328;2022-12-11T03:23:03;4.40;56.60
37456;DHT22;23316;50.718;7.328;2022-12-11T03:25:39;4.40;56.70
37456;DHT22;23316;50.718;7.328;2022-12-11T03:28:11;4.40;56.60
37456;DHT22;23316;50.718;7.328;2022-12-11T03:30:41;4.50;56.70
37456;DHT22;23316;50.718;7.328;2022-12-11T03:33:12;4.50;56.70
37456;DHT22;23316;50.718;7.328;2022-12-11T03:35:43;4.50;56.60
37456;DHT22;23316;50.718;7.328;2022-12-11T03:38:16;4.50;56.60
37456;DHT22;23316;50.718;7.328;2022-12-11T03:40:46;4.50;56.60
37456;DHT22;23316;50.718;7.328;2022-12-11T03:43:15;4.50;56.50
37456;DHT22;23316;50.718;7.328;2022-12-11T03:45:46;4.50;56.60
37456;DHT22;23316;50.718;7.328;2022-12-11T03:48:16;4.50;56.50
37456;DHT22;23316;50.718;7.328;2022-12-11T03:50:44;4.50;56.50
37456;DHT22;23316;50.718;7.328;2022-12-11T03:53:12;4.50;56.50
37456;DHT22;23316;50.718;7.328;2022-12-11T03:55:41;4.50;56.50
37456;DHT22;23316;50.718;7.328;2022-12-11T03:58:09;4.50;56.50
37456;DHT22;23316;50.718;7.328;2022-12-11T04:00:36;4.50;56.50
37456;DHT22;23316;50.718;7.328;2022-12-11T04:03:05;4.50;56.60
37456;DHT22;23316;50.718;7.328;2022-12-11T04:05:39;4.50;56.60
37456;DHT22;23316;50.718;7.328;2022-12-11T04:08:06;4.50;56.60
37456;DHT22;23316;50.718;7.328;2022-12-11T04:10:33;4.50;56.60
37456;DHT22;23316;50.718;7.328;2022-12-11T04:13:01;4.50;56.60
37456;DHT22;23316;50.718;7.328;2022-12-11T04:15:28;4.50;56.60
37456;DHT22;23316;50.718;7.328;2022-12-11T04:17:54;4.50;56.60
37456;DHT22;23316;50.718;7.328;2022-12-11T04:20:40;4.50;56.60
37456;DHT22;23316;50.718;7.328;2022-12-11T04:23:25;4.50;56.60
37456;DHT22;23316;50.718;7.328;2022-12-11T04:26:11;4.50;56.60
37456;DHT22;23316;50.718;7.328;2022-12-11T04:28:41;4.50;56.60
37456;DHT22;23316;50.718;7.328;2022-12-11T04:31:11;4.50;56.60
37456;DHT22;23316;50.718;7.328;2022-12-11T04:33:38;4.50;56.70
37456;DHT22;23316;50.718;7.328;2022-12-11T04:36:08;4.50;56.70
37456;DHT22;23316;50.718;7.328;2022-12-11T04:38:36;4.50;56.70
37456;DHT22;23316;50.718;7.328;2022-12-11T04:41:06;4.50;57.30
37456;DHT22;23316;50.718;7.328;2022-12-11T04:43:33;4.50;56.70
37456;DHT22;23316;50.718;7.328;2022-12-11T04:46:02;4.50;56.90
37456;DHT22;23316;50.718;7.328;2022-12-11T04:48:30;4.50;56.90
37456;DHT22;23316;50.718;7.328;2022-12-11T04:50:58;4.50;56.90
37456;DHT22;23316;50.718;7.328;2022-12-11T04:53:26;4.50;56.90
37456;DHT22;23316;50.718;7.328;2022-12-11T04:55:54;4.50;57.00
37456;DHT22;23316;50.718;7.328;2022-12-11T04:58:22;4.50;57.00
37456;DHT22;23316;50.718;7.328;2022-12-11T05:00:50;4.50;57.10
37456;DHT22;23316;50.718;7.328;2022-12-11T05:03:17;4.50;57.10
37456;DHT22;23316;50.718;7.328;2022-12-11T05:05:47;4.50;57.10
37456;DHT22;23316;50.718;7.328;2022-12-11T05:08:15;4.60;57.00
37456;DHT22;23316;50.718;7.328;2022-12-11T05:10:44;4.60;57.50
37456;DHT22;23316;50.718;7.328;2022-12-11T05:13:11;4.60;57.00
37456;DHT22;23316;50.718;7.328;2022-12-11T05:15:39;4.60;57.00
37456;DHT22;23316;50.718;7.328;2022-12-11T05:18:06;4.60;57.00
37456;DHT22;23316;50.718;7.328;2022-12-11T05:20:33;4.60;57.00
37456;DHT22;23316;50.718;7.328;2022-12-11T05:23:01;4.60;56.90
37456;DHT22;23316;50.718;7.328;2022-12-11T05:25:28;4.60;56.90
37456;DHT22;23316;50.718;7.328;2022-12-11T05:27:56;4.70;56.90
37456;DHT22;23316;50.718;7.328;2022-12-11T05:30:24;4.70;56.90
37456;DHT22;23316;50.718;7.328;2022-12-11T05:32:51;4.70;56.90
37456;DHT22;23316;50.718;7.328;2022-12-11T05:35:18;4.70;56.90
37456;DHT22;23316;50.718;7.328;2022-12-11T05:37:45;4.70;56.90
37456;DHT22;23316;50.718;7.328;2022-12-11T05:40:13;4.70;56.80
37456;DHT22;23316;50.718;7.328;2022-12-11T05:42:40;4.70;56.80
37456;DHT22;23316;50.718;7.328;2022-12-11T05:45:10;4.70;56.80
37456;DHT22;23316;50.718;7.328;2022-12-11T05:47:37;4.70;56.80
37456;DHT22;23316;50.718;7.328;2022-12-11T05:50:05;4.70;56.70
37456;DHT22;23316;50.718;7.328;2022-12-11T05:52:32;4.80;56.80
37456;DHT22;23316;50.718;7.328;2022-12-11T05:54:59;4.80;56.70
37456;DHT22;23316;50.718;7.328;2022-12-11T05:57:27;4.70;56.70
37456;DHT22;23316;50.718;7.328;2022-12-11T05:59:54;4.80;56.70
37456;DHT22;23316;50.718;7.328;2022-12-11T06:02:22;4.80;56.70
37456;DHT22;23316;50.718;7.328;2022-12-11T06:04:50;4.70;56.70
37456;DHT22;23316;50.718;7.328;2022-12-11T06:07:17;4.70;56.70
37456;DHT22;23316;50.718;7.328;2022-12-11T06:09:45;4.70;56.70
37456;DHT22;23316;50.718;7.328;2022-12-11T06:12:12;4.70;56.70
37456;DHT22;23316;50.718;7.328;2022-12-11T06:14:40;4.70;56.70
37456;DHT22;23316;50.718;7.328;2022-12-11T06:17:07;4.70;56.70
37456;DHT22;23316;50.718;7.328;2022-12-11T06:19:36;4.70;56.80
37456;DHT22;23316;50.718;7.328;2022-12-11T06:22:03;4.70;56.80
37456;DHT22;23316;50.718;7.328;2022-12-11T06:24:30;4.70;56.80
37456;DHT22;23316;50.718;7.328;2022-12-11T06:26:57;4.70;56.90
37456;DHT22;23316;50.718;7.328;2022-12-11T06:29:25;4.70;56.90
37456;DHT22;23316;50.718;7.328;2022-12-11T06:31:52;4.70;56.90
37456;DHT22;23316;50.718;7.328;2022-12-11T06:34:19;4.70;56.90
37456;DHT22;23316;50.718;7.328;2022-12-11T06:36:48;4.70;56.90
37456;DHT22;23316;50.718;7.328;2022-12-11T06:39:15;4.70;56.90
37456;DHT22;23316;50.718;7.328;2022-12-11T06:41:42;4.70;56.90
37456;DHT22;23316;50.718;7.328;2022-12-11T06:44:09;4.80;56.90
37456;DHT22;23316;50.718;7.328;2022-12-11T06:46:37;4.70;56.90
37456;DHT22;23316;50.718;7.328;2022-12-11T06:49:04;4.70;56.90
37456;DHT22;23316;50.718;7.328;2022-12-11T06:51:31;4.70;56.90
37456;DHT22;23316;50.718;7.328;2022-12-11T06:54:00;4.80;56.90
37456;DHT22;23316;50.718;7.328;2022-12-11T06:56:27;4.80;56.90
37456;DHT22;23316;50.718;7.328;2022-12-11T06:58:54;4.70;56.70
37456;DHT22;23316;50.718;7.328;2022-12-11T07:01:23;4.80;56.80
37456;DHT22;23316;50.718;7.328;2022-12-11T07:03:52;4.80;56.80
37456;DHT22;23316;50.718;7.328;2022-12-11T07:06:19;4.80;56.80
37456;DHT22;23316;50.718;7.328;2022-12-11T07:08:47;4.80;56.80
37456;DHT22;23316;50.718;7.328;2022-12-11T07:11:17;4.80;56.80
37456;DHT22;23316;50.718;7.328;2022-12-11T07:13:45;4.80;56.80
37456;DHT22;23316;50.718;7.328;2022-12-11T07:16:15;4.80;56.80
37456;DHT22;23316;50.718;7.328;2022-12-11T07:18:45;4.80;56.80
37456;DHT22;23316;50.718;7.328;2022-12-11T07:21:13;4.80;56.80
37456;DHT22;23316;50.718;7.328;2022-12-11T07:23:41;4.80;56.80
37456;DHT22;23316;50.718;7.328;2022-12-11T07:26:09;4.80;56.80
37456;DHT22;23316;50.718;7.328;2022-12-11T07:28:39;4.80;56.80
37456;DHT22;23316;50.718;7.328;2022-12-11T07:31:07;4.80;56.80
37456;DHT22;23316;50.718;7.328;2022-12-11T07:33:35;4.80;56.70
37456;DHT22;23316;50.718;7.328;2022-12-11T07:36:03;4.80;56.80
37456;DHT22;23316;50.718;7.328;2022-12-11T07:38:31;4.80;56.80
37456;DHT22;23316;50.718;7.328;2022-12-11T07:40:59;4.80;56.80
37456;DHT22;23316;50.718;7.328;2022-12-11T07:43:27;4.90;56.80
37456;DHT22;23316;50.718;7.328;2022-12-11T07:45:59;4.90;56.80
37456;DHT22;23316;50.718;7.328;2022-12-11T07:48:27;4.90;56.80
37456;DHT22;23316;50.718;7.328;2022-12-11T07:50:54;4.80;56.70
37456;DHT22;23316;50.718;7.328;2022-12-11T07:53:22;4.90;56.80
37456;DHT22;23316;50.718;7.328;2022-12-11T07:55:49;4.90;56.80
37456;DHT22;23316;50.718;7.328;2022-12-11T07:58:16;4.90;56.80
37456;DHT22;23316;50.718;7.328;2022-12-11T08:00:43;4.90;56.80
37456;DHT22;23316;50.718;7.328;2022-12-11T08:03:12;4.90;56.80
37456;DHT22;23316;50.718;7.328;2022-12-11T08:05:39;4.90;56.70
37456;DHT22;23316;50.718;7.328;2022-12-11T08:08:06;4.90;56.80
37456;DHT22;23316;50.718;7.328;2022-12-11T08:10:33;4.90;56.80
37456;DHT22;23316;50.718;7.328;2022-12-11T08:13:01;4.90;56.80
37456;DHT22;23316;50.718;7.328;2022-12-11T08:15:28;4.90;56.80
37456;DHT22;23316;50.718;7.328;2022-12-11T08:17:55;4.90;56.80
37456;DHT22;23316;50.718;7.328;2022-12-11T08:20:24;4.90;56.80
37456;DHT22;23316;50.718;7.328;2022-12-11T08:22:51;4.90;56.80
37456;DHT22;23316;50.718;7.328;2022-12-11T08:25:18;4.90;56.80
37456;DHT22;23316;50.718;7.328;2022-12-11T08:27:45;4.90;56.80
37456;DHT22;23316;50.718;7.328;2022-12-11T08:30:13;4.90;56.80
37456;DHT22;23316;50.718;7.328;2022-12-11T08:32:40;4.90;56.80
37456;DHT22;23316;50.718;7.328;2022-12-11T08:35:08;4.90;56.80
37456;DHT22;23316;50.718;7.328;2022-12-11T08:37:36;4.90;56.80
37456;DHT22;23316;50.718;7.328;2022-12-11T08:40:06;4.90;56.80
37456;DHT22;23316;50.718;7.328;2022-12-11T08:42:33;4.90;56.70
37456;DHT22;23316;50.718;7.328;2022-12-11T08:45:01;5.00;56.80
37456;DHT22;23316;50.718;7.328;2022-12-11T08:47:28;4.90;56.80
37456;DHT22;23316;50.718;7.328;2022-12-11T08:49:55;5.00;56.80
37456;DHT22;23316;50.718;7.328;2022-12-11T08:52:23;5.00;56.80
37456;DHT22;23316;50.718;7.328;2022-12-11T08:54:51;5.00;56.70
37456;DHT22;23316;50.718;7.328;2022-12-11T08:57:18;5.00;56.70
37456;DHT22;23316;50.718;7.328;2022-12-11T08:59:46;5.00;56.70
37456;DHT22;23316;50.718;7.328;2022-12-11T09:02:13;5.00;56.70
37456;DHT22;23316;50.718;7.328;2022-12-11T09:04:40;5.00;56.70
37456;DHT22;23316;50.718;7.328;2022-12-11T09:07:07;5.00;56.70
37456;DHT22;23316;50.718;7.328;2022-12-11T09:09:35;5.00;56.70
37456;DHT22;23316;50.718;7.328;2022-12-11T09:12:04;5.00;56.70
37456;DHT22;23316;50.718;7.328;2022-12-11T09:14:32;5.00;56.70
37456;DHT22;23316;50.718;7.328;2022-12-11T09:17:00;5.00;56.70
37456;DHT22;23316;50.718;7.328;2022-12-11T09:19:27;5.00;56.60
37456;DHT22;23316;50.718;7.328;2022-12-11T09:21:54;5.10;56.70
37456;DHT22;23316;50.718;7.328;2022-12-11T09:24:22;5.10;56.70
37456;DHT22;23316;50.718;7.328;2022-12-11T09:26:49;5.10;56.70
37456;DHT22;23316;50.718;7.328;2022-12-11T09:29:17;5.10;56.60
37456;DHT22;23316;50.718;7.328;2022-12-11T09:31:45;5.10;56.60
37456;DHT22;23316;50.718;7.328;2022-12-11T09:34:13;5.10;56.50
37456;DHT22;23316;50.718;7.328;2022-12-11T09:36:41;5.10;56.50
37456;DHT22;23316;50.718;7.328;2022-12-11T09:39:10;5.10;56.50
37456;DHT22;23316;50.718;7.328;2022-12-11T09:41:41;5.20;56.50
37456;DHT22;23316;50.718;7.328;2022-12-11T09:44:36;5.10;56.40
37456;DHT22;23316;50.718;7.328;2022-12-11T09:47:20;5.20;56.50
37456;DHT22;23316;50.718;7.328;2022-12-11T09:49:50;5.20;56.40
37456;DHT22;23316;50.718;7.328;2022-12-11T09:52:24;5.20;56.90
37456;DHT22;23316;50.718;7.328;2022-12-11T09:54:58;5.20;56.30
37456;DHT22;23316;50.718;7.328;2022-12-11T09:57:34;5.20;56.20
37456;DHT22;23316;50.718;7.328;2022-12-11T10:00:13;5.20;56.20
37456;DHT22;23316;50.718;7.328;2022-12-11T10:02:56;5.30;56.20
37456;DHT22;23316;50.718;7.328;2022-12-11T10:05:33;5.20;56.20
37456;DHT22;23316;50.718;7.328;2022-12-11T10:08:07;5.30;56.20
37456;DHT22;23316;50.718;7.328;2022-12-11T10:10:41;5.30;56.20
37456;DHT22;23316;50.718;7.328;2022-12-11T10:13:16;5.30;56.30
37456;DHT22;23316;50.718;7.328;2022-12-11T10:15:53;5.30;56.30
37456;DHT22;23316;50.718;7.328;2022-12-11T10:18:23;5.30;56.20
37456;DHT22;23316;50.718;7.328;2022-12-11T10:20:53;5.30;56.20
37456;DHT22;23316;50.718;7.328;2022-12-11T10:23:26;5.30;56.20
37456;DHT22;23316;50.718;7.328;2022-12-11T10:26:00;5.40;56.20
37456;DHT22;23316;50.718;7.328;2022-12-11T10:28:28;5.40;56.20
37456;DHT22;23316;50.718;7.328;2022-12-11T10:31:04;5.40;56.20
37456;DHT22;23316;50.718;7.328;2022-12-11T10:33:42;5.40;56.10
37456;DHT22;23316;50.718;7.328;2022-12-11T10:36:13;5.40;56.10
37456;DHT22;23316;50.718;7.328;2022-12-11T10:38:44;5.40;56.20
37456;DHT22;23316;50.718;7.328;2022-12-11T10:41:16;5.40;56.20
37456;DHT22;23316;50.718;7.328;2022-12-11T10:43:47;5.40;56.20
37456;DHT22;23316;50.718;7.328;2022-12-11T10:46:18;5.40;56.20
37456;DHT22;23316;50.718;7.328;2022-12-11T10:48:46;5.40;56.10
37456;DHT22;23316;50.718;7.328;2022-12-11T10:51:13;5.50;56.10
37456;DHT22;23316;50.718;7.328;2022-12-11T10:53:41;5.50;56.00
37456;DHT22;23316;50.718;7.328;2022-12-11T10:56:10;5.50;56.00
37456;DHT22;23316;50.718;7.328;2022-12-11T10:58:47;5.50;56.00
37456;DHT22;23316;50.718;7.328;2022-12-11T11:01:20;5.50;56.00
37456;DHT22;23316;50.718;7.328;2022-12-11T11:03:54;5.50;56.00
37456;DHT22;23316;50.718;7.328;2022-12-11T11:06:23;5.60;56.00
37456;DHT22;23316;50.718;7.328;2022-12-11T11:08:53;5.60;56.00
37456;DHT22;23316;50.718;7.328;2022-12-11T11:11:24;5.60;56.00
37456;DHT22;23316;50.718;7.328;2022-12-11T11:14:02;5.60;56.00
37456;DHT22;23316;50.718;7.328;2022-12-11T11:16:34;5.60;56.00
37456;DHT22;23316;50.718;7.328;2022-12-11T11:19:02;5.60;55.90
37456;DHT22;23316;50.718;7.328;2022-12-11T11:21:30;5.70;55.90
37456;DHT22;23316;50.718;7.328;2022-12-11T11:23:58;5.70;55.90
37456;DHT22;23316;50.718;7.328;2022-12-11T11:26:26;5.70;55.90
37456;DHT22;23316;50.718;7.328;2022-12-11T11:28:57;5.70;55.80
37456;DHT22;23316;50.718;7.328;2022-12-11T11:31:32;5.70;55.70
37456;DHT22;23316;50.718;7.328;2022-12-11T11:34:02;5.70;55.70
37456;DHT22;23316;50.718;7.328;2022-12-11T11:36:33;5.80;55.70
37456;DHT22;23316;50.718;7.328;2022-12-11T11:39:13;5.80;55.70
37456;DHT22;23316;50.718;7.328;2022-12-11T11:41:48;5.80;55.60
37456;DHT22;23316;50.718;7.328;2022-12-11T11:44:22;5.80;55.50
37456;DHT22;23316;50.718;7.328;2022-12-11T11:46:56;5.80;55.50
37456;DHT22;23316;50.718;7.328;2022-12-11T11:49:33;5.80;55.40
37456;DHT22;23316;50.718;7.328;2022-12-11T11:52:18;5.90;55.40
37456;DHT22;23316;50.718;7.328;2022-12-11T11:54:54;5.80;55.20
37456;DHT22;23316;50.718;7.328;2022-12-11T11:57:32;5.80;55.10
37456;DHT22;23316;50.718;7.328;2022-12-11T12:00:18;5.80;55.20
37456;DHT22;23316;50.718;7.328;2022-12-11T12:02:47;5.80;55.20
37456;DHT22;23316;50.718;7.328;2022-12-11T12:05:32;5.80;55.20
37456;DHT22;23316;50.718;7.328;2022-12-11T12:08:10;5.90;55.20
37456;DHT22;23316;50.718;7.328;2022-12-11T12:10:46;5.90;55.00
37456;DHT22;23316;50.718;7.328;2022-12-11T12:13:20;5.90;54.90
37456;DHT22;23316;50.718;7.328;2022-12-11T12:15:55;5.90;55.00
37456;DHT22;23316;50.718;7.328;2022-12-11T12:18:32;5.90;55.00
37456;DHT22;23316;50.718;7.328;2022-12-11T12:21:11;5.90;55.00
37456;DHT22;23316;50.718;7.328;2022-12-11T12:23:51;5.90;55.00
37456;DHT22;23316;50.718;7.328;2022-12-11T12:26:24;5.90;55.10
37456;DHT22;23316;50.718;7.328;2022-12-11T12:28:56;5.90;55.10
37456;DHT22;23316;50.718;7.328;2022-12-11T12:31:39;6.00;55.20
37456;DHT22;23316;50.718;7.328;2022-12-11T12:34:18;6.00;55.10
37456;DHT22;23316;50.718;7.328;2022-12-11T12:36:53;6.00;55.10
37456;DHT22;23316;50.718;7.328;2022-12-11T12:39:29;6.00;55.00
37456;DHT22;23316;50.718;7.328;2022-12-11T12:42:04;6.00;55.00
37456;DHT22;23316;50.718;7.328;2022-12-11T12:44:38;6.00;54.90
37456;DHT22;23316;50.718;7.328;2022-12-11T12:47:09;6.00;54.80
37456;DHT22;23316;50.718;7.328;2022-12-11T12:49:40;6.10;54.80
37456;DHT22;23316;50.718;7.328;2022-12-11T12:52:12;6.10;54.70
37456;DHT22;23316;50.718;7.328;2022-12-11T12:54:43;6.10;54.60
37456;DHT22;23316;50.718;7.328;2022-12-11T12:57:33;6.10;54.60
37456;DHT22;23316;50.718;7.328;2022-12-11T13:00:01;6.10;54.60
37456;DHT22;23316;50.718;7.328;2022-12-11T13:02:29;6.10;54.50
37456;DHT22;23316;50.718;7.328;2022-12-11T13:05:01;6.10;54.40
37456;DHT22;23316;50.718;7.328;2022-12-11T13:07:31;6.10;54.30
37456;DHT22;23316;50.718;7.328;2022-12-11T13:10:04;6.10;54.20
37456;DHT22;23316;50.718;7.328;2022-12-11T13:12:40;6.00;54.10
37456;DHT22;23316;50.718;7.328;2022-12-11T13:15:29;6.00;54.10
37456;DHT22;23316;50.718;7.328;2022-12-11T13:17:57;6.00;54.00
37456;DHT22;23316;50.718;7.328;2022-12-11T13:20:28;6.00;54.00
37456;DHT22;23316;50.718;7.328;2022-12-11T13:23:15;6.00;54.00
37456;DHT22;23316;50.718;7.328;2022-12-11T13:25:48;6.00;53.90
37456;DHT22;23316;50.718;7.328;2022-12-11T13:28:23;6.00;53.90
37456;DHT22;23316;50.718;7.328;2022-12-11T13:31:02;6.00;53.80
37456;DHT22;23316;50.718;7.328;2022-12-11T13:33:31;5.90;53.70
37456;DHT22;23316;50.718;7.328;2022-12-11T13:36:27;5.90;53.80
37456;DHT22;23316;50.718;7.328;2022-12-11T13:38:59;5.90;53.70
37456;DHT22;23316;50.718;7.328;2022-12-11T13:41:27;5.90;53.90
37456;DHT22;23316;50.718;7.328;2022-12-11T13:43:56;5.90;53.90
37456;DHT22;23316;50.718;7.328;2022-12-11T13:46:26;5.90;53.90
37456;DHT22;23316;50.718;7.328;2022-12-11T13:48:56;5.90;53.90
37456;DHT22;23316;50.718;7.328;2022-12-11T13:51:29;5.90;53.90
37456;DHT22;23316;50.718;7.328;2022-12-11T13:54:05;5.90;53.90
37456;DHT22;23316;50.718;7.328;2022-12-11T13:56:37;5.90;54.00
37456;DHT22;23316;50.718;7.328;2022-12-11T13:59:04;5.90;54.00
37456;DHT22;23316;50.718;7.328;2022-12-11T14:01:32;5.90;54.00
37456;DHT22;23316;50.718;7.328;2022-12-11T14:04:02;5.90;53.90
37456;DHT22;23316;50.718;7.328;2022-12-11T14:06:32;5.90;53.90
37456;DHT22;23316;50.718;7.328;2022-12-11T14:09:02;5.90;53.90
37456;DHT22;23316;50.718;7.328;2022-12-11T14:11:33;5.90;53.90
37456;DHT22;23316;50.718;7.328;2022-12-11T14:14:03;5.90;53.90
37456;DHT22;23316;50.718;7.328;2022-12-11T14:16:32;5.90;53.80
37456;DHT22;23316;50.718;7.328;2022-12-11T14:19:02;5.90;53.80
37456;DHT22;23316;50.718;7.328;2022-12-11T14:21:32;5.90;53.80
37456;DHT22;23316;50.718;7.328;2022-12-11T14:24:01;5.90;53.70
37456;DHT22;23316;50.718;7.328;2022-12-11T14:26:30;5.90;53.80
37456;DHT22;23316;50.718;7.328;2022-12-11T14:28:58;5.90;53.70
37456;DHT22;23316;50.718;7.328;2022-12-11T14:31:28;5.90;54.20
37456;DHT22;23316;50.718;7.328;2022-12-11T14:34:00;5.90;53.70
37456;DHT22;23316;50.718;7.328;2022-12-11T14:36:29;5.90;53.70
37456;DHT22;23316;50.718;7.328;2022-12-11T14:39:01;5.90;53.70
37456;DHT22;23316;50.718;7.328;2022-12-11T14:41:34;5.90;53.60
37456;DHT22;23316;50.718;7.328;2022-12-11T14:44:07;5.90;53.60
37456;DHT22;23316;50.718;7.328;2022-12-11T14:46:42;5.90;53.60
37456;DHT22;23316;50.718;7.328;2022-12-11T14:49:16;5.90;53.60
37456;DHT22;23316;50.718;7.328;2022-12-11T14:51:47;5.90;53.60
37456;DHT22;23316;50.718;7.328;2022-12-11T14:54:27;5.90;53.60
37456;DHT22;23316;50.718;7.328;2022-12-11T14:56:55;5.90;53.60
37456;DHT22;23316;50.718;7.328;2022-12-11T14:59:25;5.80;53.60
37456;DHT22;23316;50.718;7.328;2022-12-11T15:02:00;5.80;53.50
37456;DHT22;23316;50.718;7.328;2022-12-11T15:04:30;5.80;53.40
37456;DHT22;23316;50.718;7.328;2022-12-11T15:07:00;5.80;53.40
37456;DHT22;23316;50.718;7.328;2022-12-11T15:09:36;5.80;53.50
37456;DHT22;23316;50.718;7.328;2022-12-11T15:12:10;5.80;53.40
37456;DHT22;23316;50.718;7.328;2022-12-11T15:14:42;5.80;53.40
37456;DHT22;23316;50.718;7.328;2022-12-11T15:17:13;5.70;53.40
37456;DHT22;23316;50.718;7.328;2022-12-11T15:19:40;5.70;53.40
37456;DHT22;23316;50.718;7.328;2022-12-11T15:22:14;5.70;53.50
37456;DHT22;23316;50.718;7.328;2022-12-11T15:24:44;5.70;53.60
37456;DHT22;23316;50.718;7.328;2022-12-11T15:27:24;5.70;53.60
37456;DHT22;23316;50.718;7.328;2022-12-11T15:29:51;5.70;53.60
37456;DHT22;23316;50.718;7.328;2022-12-11T15:32:20;5.70;53.70
37456;DHT22;23316;50.718;7.328;2022-12-11T15:35:00;5.70;53.70
37456;DHT22;23316;50.718;7.328;2022-12-11T15:37:33;5.70;53.70
37456;DHT22;23316;50.718;7.328;2022-12-11T15:40:09;5.70;53.70
37456;DHT22;23316;50.718;7.328;2022-12-11T15:42:41;5.70;53.80
37456;DHT22;23316;50.718;7.328;2022-12-11T15:45:29;5.70;53.80
37456;DHT22;23316;50.718;7.328;2022-12-11T15:47:58;5.70;53.80
37456;DHT22;23316;50.718;7.328;2022-12-11T15:50:30;5.70;53.80
37456;DHT22;23316;50.718;7.328;2022-12-11T15:53:02;5.70;53.80
37456;DHT22;23316;50.718;7.328;2022-12-11T15:55:31;5.70;53.80
37456;DHT22;23316;50.718;7.328;2022-12-11T15:58:01;5.60;53.80
37456;DHT22;23316;50.718;7.328;2022-12-11T16:00:29;5.70;53.80
37456;DHT22;23316;50.718;7.328;2022-12-11T16:02:57;5.70;53.80
37456;DHT22;23316;50.718;7.328;2022-12-11T16:05:25;5.60;53.80